Time;durP1;ratioP1;P1;durP2;ratioP2;P2;SDS_P1;SDS_P2;PMS_P1;PMS_P2;Temp;Humidity;BMP_temperature;BMP_pressure;BME280_temperature;BME280_humidity;BME280_pressure;Samples;Min_cycle;Max_cycle;Signal;HPM_P1;HPM_P2
2022/01/22 00:02:29;;;;;;;;;;;;;;;10.91;56.31;101866.16;5079437;28;20040;-80
2022/01/22 00:05:16;;;;;;;44.20;22.50;;;;;;;10.99;57.00;101864.72;5076842;28;19913;-80
2022/01/22 00:08:01;;;;;;;32.97;20.20;;;;;;;11.03;58.35;101874.72;5081335;28;20040;-80
2022/01/22 00:10:47;;;;;;;34.05;18.50;;;;;;;11.07;60.68;101866.81;5076109;28;20052;-80
2022/01/22 00:16:35;;;;;;;54.25;29.35;;;;;;;10.95;56.55;101882.72;5078388;28;20033;-81
2022/01/22 00:19:21;;;;;;;;;;;;;;;10.92;56.15;101888.75;5068413;28;20045;-81
2022/01/22 00:22:06;;;;;;;66.40;33.13;;;;;;;10.87;56.20;101900.47;5065712;28;19913;-81
2022/01/22 00:24:56;;;;;;;;;;;;;;;10.84;56.01;101895.63;5072736;28;20036;-81
2022/01/22 00:27:43;;;;;;;60.05;29.95;;;;;;;10.86;56.79;101895.34;5063668;28;19912;-81
2022/01/22 00:30:28;;;;;;;39.00;17.40;;;;;;;10.99;61.38;101900.91;5057882;28;20036;-80
2022/01/22 00:33:16;;;;;;;57.45;29.42;;;;;;;10.98;60.71;101893.03;5080599;28;20041;-81
2022/01/22 00:36:01;;;;;;;34.85;19.27;;;;;;;11.01;62.36;101890.56;5063318;28;20041;-80
2022/01/22 00:38:45;;;;;;;24.25;12.40;;;;;;;11.08;64.33;101896.44;5060467;28;20036;-80
2022/01/22 00:41:30;;;;;;;;;;;;;;;11.12;63.96;101892.03;5066220;28;20044;-80
2022/01/22 00:44:15;;;;;;;31.15;16.45;;;;;;;11.12;64.31;101885.81;5066042;28;20377;-81
2022/01/22 00:47:02;;;;;;;28.88;15.55;;;;;;;11.12;64.58;101886.59;5062839;28;20040;-80
2022/01/22 00:49:47;;;;;;;25.67;14.85;;;;;;;11.09;63.93;101879.00;5075405;28;20045;-80
2022/01/22 00:52:32;;;;;;;34.20;17.85;;;;;;;10.92;58.44;101888.75;5079244;28;20048;-80
2022/01/22 00:55:18;;;;;;;29.25;18.40;;;;;;;10.95;60.13;101886.25;5060385;28;20440;-80
2022/01/22 00:58:03;;;;;;;51.17;25.33;;;;;;;10.89;57.69;101889.31;5081149;28;20044;-81
2022/01/22 01:00:48;;;;;;;;;;;;;;;10.92;61.23;101884.09;5076298;28;20037;-80
2022/01/22 01:03:34;;;;;;;33.40;17.80;;;;;;;10.88;60.73;101893.13;5076210;28;19913;-81
2022/01/22 01:06:19;;;;;;;30.75;17.15;;;;;;;10.93;62.20;101893.88;5081070;28;20044;-80
2022/01/22 01:09:09;;;;;;;32.88;18.77;;;;;;;10.97;61.95;101897.66;5075974;28;20040;-80
2022/01/22 01:11:59;;;;;;;42.08;20.95;;;;;;;10.92;60.41;101900.44;5062379;28;20040;-81
2022/01/22 01:14:52;;;;;;;57.42;29.70;;;;;;;10.85;59.71;101889.09;5057229;28;20037;-81
2022/01/22 01:32:53;;;;;;;22.77;13.38;;;;;;;11.06;67.82;101895.13;5064197;28;20041;-81
2022/01/22 01:35:39;;;;;;;27.67;14.57;;;;;;;11.03;66.62;101899.22;5060645;28;20048;-81
2022/01/22 01:38:24;;;;;;;27.05;14.52;;;;;;;11.03;66.85;101891.06;5054626;28;20045;-80
2022/01/22 01:41:21;;;;;;;24.67;13.05;;;;;;;11.02;67.64;101894.88;5054290;28;20041;-80
2022/01/22 01:44:07;;;;;;;28.25;14.30;;;;;;;11.06;67.58;101901.38;5059157;28;20037;-79
2022/01/22 01:47:13;;;;;;;30.58;16.60;;;;;;;10.97;63.90;101894.94;5049674;28;20041;-81
2022/01/22 01:49:58;;;;;;;33.33;17.40;;;;;;;10.89;61.03;101897.47;5062977;28;20044;-80
2022/01/22 01:53:05;;;;;;;37.35;21.83;;;;;;;10.82;59.54;101889.66;5081969;28;20044;-80
2022/01/22 01:58:49;;;;;;;35.95;18.10;;;;;;;10.86;62.63;101900.78;5067654;28;20493;-80
2022/01/22 02:01:33;;;;;;;39.60;22.75;;;;;;;10.82;61.53;101894.31;5061546;28;20409;-79
2022/01/22 02:04:18;;;;;;;;;;;;;;;10.79;61.08;101889.41;5063756;28;20631;-80
2022/01/22 02:07:04;;;;;;;31.98;16.20;;;;;;;10.83;63.20;101895.91;5067936;28;19912;-81
2022/01/22 02:09:58;;;;;;;53.42;26.85;;;;;;;10.67;59.30;101881.63;5063983;28;20497;-80
2022/01/22 02:25:03;;;;;;;48.00;25.42;;;;;;;10.66;62.75;101869.97;5063814;28;20044;-80
2022/01/22 02:27:48;;;;;;;31.95;17.45;;;;;;;10.64;62.60;101866.72;5066176;28;20048;-80
2022/01/22 02:30:42;;;;;;;36.80;20.00;;;;;;;10.52;58.99;101860.03;5066289;28;20032;-81
2022/01/22 02:34:18;;;;;;;31.40;16.45;;;;;;;10.64;63.84;101865.91;5078755;28;20048;-80
2022/01/22 02:37:11;;;;;;;24.05;13.02;;;;;;;10.70;66.90;101857.41;5064958;28;20040;-80
2022/01/22 02:40:05;;;;;;;22.35;13.27;;;;;;;10.70;66.72;101851.16;5062792;28;20036;-79
2022/01/22 02:42:50;;;;;;;23.88;13.10;;;;;;;10.69;67.01;101852.25;5065608;28;20501;-79
2022/01/22 02:45:35;;;;;;;20.58;11.35;;;;;;;10.68;66.94;101839.75;5074088;28;20040;-80
2022/01/22 02:48:19;;;;;;;;;;;;;;;10.70;67.04;101843.00;5065700;28;20416;-80
2022/01/22 02:51:04;;;;;;;29.02;16.88;;;;;;;10.50;60.52;101833.13;5078770;28;19917;-80
2022/01/22 02:53:53;;;;;;;30.35;15.40;;;;;;;10.56;63.28;101833.91;5061225;28;20040;-80
2022/01/22 02:56:37;;;;;;;23.95;14.90;;;;;;;10.59;65.38;101836.84;5074521;28;20052;-80
2022/01/22 02:59:23;;;;;;;25.45;14.43;;;;;;;10.61;66.45;101848.25;5056120;28;20040;-80
2022/01/22 03:02:14;;;;;;;26.42;13.55;;;;;;;10.60;67.82;101848.53;5063068;28;20044;-80
2022/01/22 03:05:01;;;;;;;21.30;13.65;;;;;;;10.60;67.80;101840.38;5060929;28;20052;-80
2022/01/22 03:07:50;;;;;;;24.83;13.95;;;;;;;10.60;67.48;101851.25;5079559;28;20036;-80
2022/01/22 03:10:36;;;;;;;29.00;16.95;;;;;;;10.54;64.69;101838.81;5071514;28;20036;-80
2022/01/22 03:19:27;;;;;;;34.92;19.45;;;;;;;10.45;64.68;101837.81;5076383;28;20041;-80
2022/01/22 03:28:07;;;;;;;46.47;23.67;;;;;;;10.27;60.70;101834.69;5061778;28;20041;-80
2022/01/22 03:30:52;;;;;;;50.15;25.08;;;;;;;10.28;61.79;101832.78;5079157;28;20032;-80
2022/01/22 03:33:37;;;;;;;28.17;15.25;;;;;;;10.33;64.44;101821.88;5055042;28;20056;-80
2022/01/22 03:36:23;;;;;;;24.85;14.15;;;;;;;10.41;66.49;101829.44;5064210;28;20040;-80
2022/01/22 03:39:09;;;;;;;28.52;15.35;;;;;;;10.39;65.79;101826.16;5058469;28;20044;-80
2022/01/22 03:41:53;;;;;;;27.00;14.02;;;;;;;10.36;65.61;101825.94;5075513;28;20036;-80
2022/01/22 03:44:38;;;;;;;18.80;10.65;;;;;;;10.35;66.21;101813.44;5065367;28;20036;-81
2022/01/22 03:47:23;;;;;;;25.65;14.35;;;;;;;10.35;66.03;101818.88;5064546;28;20048;-80
2022/01/22 03:50:11;;;;;;;37.58;17.02;;;;;;;10.28;62.83;101813.75;5058160;28;20041;-79
2022/01/22 03:52:56;;;;;;;35.95;20.08;;;;;;;10.25;62.79;101812.44;5056598;28;20044;-79
2022/01/22 03:56:02;;;;;;;34.90;17.13;;;;;;;10.25;62.56;101826.03;5063460;28;20044;-80
2022/01/22 03:59:16;;;;;;;46.95;24.30;;;;;;;10.11;58.51;101819.59;5065860;28;20048;-80
2022/01/22 04:02:50;;;;;;;39.63;22.83;;;;;;;10.06;58.06;101819.63;5056972;28;20040;-80
2022/01/22 04:05:22;;;;;;;43.90;23.63;;;;;;;9.95;56.33;101809.97;5060002;28;20045;-80
2022/01/22 04:08:15;;;;;;;35.10;17.85;;;;;;;9.95;57.57;101799.09;5064650;28;20051;-81
2022/01/22 04:11:00;;;;;;;40.35;22.05;;;;;;;9.99;59.43;101800.13;5076810;28;20416;-80
2022/01/22 04:13:48;;;;;;;39.55;21.20;;;;;;;9.95;58.99;101799.09;5059762;28;20042;-80
2022/01/22 04:16:36;;;;;;;27.40;16.40;;;;;;;10.02;62.29;101799.56;5079344;28;20497;-81
2022/01/22 04:25:58;;;;;;;33.53;17.90;;;;;;;10.06;64.76;101797.88;4999987;28;20038;-79
2022/01/22 04:28:43;;;;;;;28.43;15.97;;;;;;;10.06;66.18;101789.72;5065008;28;20421;-79
2022/01/22 04:31:29;;;;;;;25.00;13.02;;;;;;;10.07;67.04;101788.63;5075130;28;20049;-79
2022/01/22 04:34:14;;;;;;;;;;;;;;;10.02;65.96;101802.28;5060890;28;20049;-79
2022/01/22 04:36:59;;;;;;;25.20;14.27;;;;;;;9.98;65.09;101794.97;5062221;28;19916;-80
2022/01/22 04:39:45;;;;;;;21.08;11.75;;;;;;;9.99;66.11;101794.69;5072088;28;20071;-79
2022/01/22 04:42:33;;;;;;;45.05;25.33;;;;;;;9.78;58.09;101788.63;5054133;28;20041;-80
2022/01/22 04:57:04;;;;;;;33.22;16.70;;;;;;;9.66;63.92;101763.72;5058592;28;20060;-80
2022/01/22 04:59:49;;;;;;;27.33;13.02;;;;;;;9.54;63.22;101754.31;5057047;28;20131;-80
2022/01/22 05:02:34;;;;;;;35.90;19.88;;;;;;;9.53;63.77;101758.94;5055443;28;20486;-79
2022/01/22 05:05:39;;;;;;;29.43;15.13;;;;;;;9.69;67.28;101762.34;5052164;28;20045;-79
2022/01/22 05:08:44;;;;;;;34.33;15.85;;;;;;;9.65;66.75;101748.50;5048122;28;20520;-79
2022/01/22 05:11:32;;;;;;;47.83;24.95;;;;;;;9.49;63.04;101746.22;5069599;28;20075;-81
2022/01/22 05:14:17;;;;;;;35.85;17.70;;;;;;;9.44;65.20;101745.16;5061235;28;20043;-81
2022/01/22 05:17:05;;;;;;;30.13;14.23;;;;;;;9.51;67.11;101744.00;5083215;28;20416;-81
2022/01/22 05:20:02;;;;;;;35.67;17.67;;;;;;;9.58;68.60;101756.19;5066314;28;20036;-81
2022/01/22 05:25:41;;;;;;;30.42;17.17;;;;;;;9.68;70.23;101750.66;5067763;28;20068;-81
2022/01/22 05:38:06;;;;;;;29.25;16.98;;;;;;;9.67;69.52;101754.47;5069279;28;20059;-80
2022/01/22 05:40:51;;;;;;;35.58;18.65;;;;;;;9.69;69.45;101763.16;5062857;28;20032;-81
2022/01/22 05:43:36;;;;;;;27.75;13.18;;;;;;;9.71;69.70;101749.28;5081133;28;20047;-81
2022/01/22 05:46:21;;;;;;;27.15;13.18;;;;;;;9.72;70.89;101761.78;5078613;28;20527;-82
2022/01/22 05:49:06;;;;;;;;;;;;;;;9.74;70.95;101754.97;5095374;28;20041;-82
2022/01/22 05:51:53;;;;;;;26.13;14.70;;;;;;;9.69;69.99;101751.50;5072098;28;19931;-79
2022/01/22 06:00:55;;;;;;;27.83;13.73;;;;;;;9.48;67.56;101756.25;5023412;28;20036;-80
2022/01/22 06:03:54;;;;;;;41.25;19.95;;;;;;;9.44;67.82;101747.88;5062807;28;20044;-79
2022/01/22 06:06:39;;;;;;;26.35;13.02;;;;;;;9.55;70.82;101754.00;5067961;28;20036;-80
2022/01/22 06:09:27;;;;;;;27.95;14.55;;;;;;;9.58;70.43;101749.94;5066011;28;20036;-79
2022/01/22 06:15:06;;;;;;;27.23;13.13;;;;;;;9.62;71.66;101740.94;5047324;28;19912;-79
2022/01/22 06:17:58;;;;;;;26.60;12.25;;;;;;;9.63;72.89;101741.75;5051141;28;20532;-79
2022/01/22 06:20:43;;;;;;;28.80;14.77;;;;;;;9.52;70.57;101737.47;5064801;28;20402;-79
2022/01/22 06:23:28;;;;;;;;;;;;;;;9.57;71.16;101737.44;5055794;28;20055;-80
2022/01/22 06:26:13;;;;;;;23.75;13.45;;;;;;;9.58;71.55;101718.16;5065899;28;20381;-79
2022/01/22 06:28:59;;;;;;;29.33;14.30;;;;;;;9.52;70.20;101707.63;5067782;28;20048;-79
2022/01/22 06:31:45;;;;;;;31.00;13.90;;;;;;;9.55;71.30;101724.16;5064937;28;20055;-80
2022/01/22 06:34:30;;;;;;;49.00;21.75;;;;;;;9.49;70.27;101717.16;5059172;28;20044;-79
2022/01/22 06:37:16;;;;;;;33.55;17.63;;;;;;;9.59;71.86;101725.22;5062983;28;20043;-79
2022/01/22 06:44:00;;;;;;;27.08;15.20;;;;;;;9.58;71.92;101709.22;4996980;28;20381;-80
2022/01/22 06:47:07;;;;;;;32.47;16.67;;;;;;;9.61;72.47;101705.91;4999238;28;20064;-80
2022/01/22 06:50:19;;;;;;;26.33;13.95;;;;;;;9.56;70.95;101705.94;5046463;28;20041;-80
2022/01/22 06:53:07;;;;;;;25.55;14.02;;;;;;;9.55;70.77;101701.63;5081258;28;20410;-80
2022/01/22 06:56:05;;;;;;;30.75;16.13;;;;;;;9.39;66.73;101709.91;5074148;28;20045;-80
2022/01/22 06:59:19;;;;;;;19.42;10.93;;;;;;;9.43;69.10;101721.81;5081101;28;20036;-80
2022/01/22 07:02:06;;;;;;;24.00;13.90;;;;;;;9.49;70.31;101740.78;5070240;28;20032;-79
2022/01/22 07:04:52;;;;;;;24.35;13.05;;;;;;;9.47;71.78;101749.19;5066849;28;20043;-80
2022/01/22 07:07:56;;;;;;;26.30;12.60;;;;;;;9.47;71.94;101754.63;5078433;28;20048;-79
2022/01/22 07:10:41;;;;;;;18.20;10.65;;;;;;;9.49;72.32;101751.63;5062758;28;20048;-79
2022/01/22 07:13:26;;;;;;;28.58;15.38;;;;;;;9.47;72.30;101745.66;5075239;28;20036;-84
2022/01/22 07:16:14;;;;;;;34.38;12.70;;;;;;;9.44;73.21;101739.72;5072140;28;20051;-84
2022/01/22 07:19:01;;;;;;;20.52;10.27;;;;;;;9.44;73.27;101734.28;5077301;28;20047;-84
2022/01/22 07:21:59;;;;;;;27.00;13.32;;;;;;;9.37;72.22;101724.84;5078737;28;20039;-83
2022/01/22 07:24:44;;;;;;;35.40;14.88;;;;;;;9.34;71.80;101715.38;5085802;28;20036;-83
2022/01/22 07:27:29;;;;;;;;;;;;;;;5.74;53.07;101707.34;5051104;28;20064;-82
2022/01/22 07:30:13;;;;;;;51.22;22.92;;;;;;;3.87;60.17;101716.78;5042935;28;19913;-81
2022/01/22 07:32:59;;;;;;;53.95;25.00;;;;;;;3.11;61.76;101707.44;5059435;28;20520;-80
2022/01/22 07:35:44;;;;;;;43.80;19.85;;;;;;;2.40;62.61;101700.69;5066418;28;20110;-80
2022/01/22 07:38:29;;;;;;;55.33;27.73;;;;;;;1.61;65.19;101702.13;5043371;28;20049;-81
2022/01/22 07:41:17;;;;;;;58.70;24.52;;;;;;;1.73;64.99;101711.00;5061431;28;20040;-78
2022/01/22 07:44:12;;;;;;;54.20;24.35;;;;;;;1.27;66.43;101706.38;5064206;28;20041;-80
2022/01/22 07:47:06;;;;;;;61.42;23.27;;;;;;;1.30;67.60;101713.16;5059365;28;20044;-79
2022/01/22 07:49:51;;;;;;;52.55;21.10;;;;;;;1.31;67.55;101717.47;5059957;28;20059;-80
2022/01/22 07:52:36;;;;;;;36.78;16.88;;;;;;;1.27;66.99;101714.41;5059727;28;20110;-80
2022/01/22 07:55:22;;;;;;;59.08;19.23;;;;;;;0.95;68.87;101704.19;5057738;28;20040;-79
2022/01/22 07:58:08;;;;;;;48.72;21.13;;;;;;;0.99;69.04;101694.66;5058509;28;20044;-80
2022/01/22 08:00:52;;;;;;;40.65;17.45;;;;;;;0.99;68.46;101702.69;5061020;28;20037;-78
2022/01/22 08:03:38;;;;;;;36.08;17.00;;;;;;;1.53;68.03;101697.09;5052049;28;20048;-80
2022/01/22 08:06:59;;;;;;;48.42;22.30;;;;;;;1.40;66.97;101702.69;5070096;28;20521;-79
2022/01/22 08:09:46;;;;;;;52.22;21.45;;;;;;;1.82;67.87;101699.94;5068540;28;20047;-80
2022/01/22 08:13:03;;;;;;;42.55;18.45;;;;;;;2.28;68.48;101691.88;5053835;28;20501;-79
2022/01/22 08:15:49;;;;;;;57.17;22.42;;;;;;;2.61;68.25;101698.41;5055361;28;20048;-80
2022/01/22 08:18:33;;;;;;;39.88;18.00;;;;;;;2.70;67.65;101686.25;5065709;28;20047;-79
2022/01/22 08:21:18;;;;;;;44.33;18.10;;;;;;;2.26;68.83;101669.81;5062896;28;20029;-81
2022/01/22 08:24:41;;;;;;;52.25;21.48;;;;;;;2.68;69.61;101666.88;5001183;28;20050;-79
2022/01/22 08:30:16;;;;;;;52.13;24.92;;;;;;;4.25;62.23;101672.94;5047188;28;20056;-83
2022/01/22 08:35:57;;;;;;;50.75;19.98;;;;;;;2.80;66.82;101671.13;5080051;28;20043;-83
2022/01/22 08:38:43;;;;;;;56.75;27.90;;;;;;;2.89;67.37;101675.09;5051025;28;20041;-81
2022/01/22 08:41:30;;;;;;;58.33;23.60;;;;;;;3.06;67.49;101685.03;5060338;28;20040;-83
2022/01/22 08:44:15;;;;;;;47.20;19.27;;;;;;;3.07;67.53;101681.31;5061648;28;20045;-83
2022/01/22 08:47:00;;;;;;;45.00;19.70;;;;;;;3.08;67.05;101683.75;5060594;28;20409;-81
2022/01/22 08:49:45;;;;;;;50.42;21.75;;;;;;;3.02;67.48;101687.41;5058355;28;20041;-82
2022/01/22 08:52:35;;;;;;;54.65;26.10;;;;;;;2.88;67.21;101683.38;5048825;28;20049;-82
2022/01/22 08:55:20;;;;;;;45.70;24.98;;;;;;;2.71;67.78;101682.50;5061008;28;20512;-78
2022/01/22 08:58:05;;;;;;;42.90;20.65;;;;;;;2.80;68.18;101678.38;5064911;28;20051;-78
2022/01/22 09:01:06;;;;;;;55.05;25.13;;;;;;;3.03;68.29;101669.41;5072259;28;20516;-81
2022/01/22 09:03:54;;;;;;;58.10;26.90;;;;;;;3.15;67.98;101665.59;5078333;28;20044;-80
2022/01/22 09:06:52;;;;;;;59.30;24.25;;;;;;;3.18;67.12;101656.25;5084517;28;20572;-80
2022/01/22 09:09:52;;;;;;;57.53;24.23;;;;;;;3.30;67.40;101659.69;5073173;28;20719;-80
2022/01/22 09:12:57;;;;;;;47.90;20.73;;;;;;;3.53;67.49;101667.56;5089450;28;20062;-80
2022/01/22 09:15:53;;;;;;;58.95;26.70;;;;;;;3.70;67.58;101656.81;5073609;28;20048;-80
2022/01/22 09:18:38;;;;;;;62.55;28.55;;;;;;;3.92;67.28;101659.53;5070113;28;20052;-80
2022/01/22 09:21:23;;;;;;;62.40;25.27;;;;;;;3.92;65.94;101654.16;5052982;28;20063;-77
2022/01/22 09:24:10;;;;;;;57.70;22.13;;;;;;;4.04;65.88;101663.75;5077404;28;20050;-79
2022/01/22 09:26:57;;;;;;;62.90;25.02;;;;;;;4.21;64.51;101659.16;5074484;28;20651;-79
2022/01/22 09:29:44;;;;;;;62.78;27.00;;;;;;;4.52;64.80;101646.06;5068667;28;20041;-79
2022/01/22 09:32:29;;;;;;;60.78;26.23;;;;;;;4.62;63.57;101640.78;5060823;28;20044;-80
2022/01/22 09:35:13;;;;;;;53.40;20.23;;;;;;;4.68;62.59;101645.16;5095107;28;20032;-79
2022/01/22 09:38:06;;;;;;;61.70;23.90;;;;;;;5.05;62.77;101642.56;5098271;28;20798;-80
2022/01/22 09:41:05;;;;;;;59.85;25.50;;;;;;;5.29;62.47;101643.03;5075589;28;20565;-79
2022/01/22 09:44:10;;;;;;;63.58;25.67;;;;;;;5.39;62.49;101641.25;5073871;28;20032;-80
2022/01/22 09:47:31;;;;;;;62.10;25.95;;;;;;;5.47;63.46;101637.25;5078125;28;20040;-78
2022/01/22 09:50:47;;;;;;;;;;;;;;;5.40;61.75;101628.56;5054872;28;20037;-78
2022/01/22 09:54:10;;;;;;;59.10;26.25;;;;;;;5.96;62.79;101643.28;5029517;28;19917;-77
2022/01/22 09:57:15;;;;;;;65.57;26.52;;;;;;;5.88;61.23;101655.41;5056813;28;20043;-77
2022/01/22 10:00:18;;;;;;;68.13;28.05;;;;;;;6.39;60.65;101658.34;5070305;28;20073;-77
2022/01/22 10:03:16;;;;;;;71.70;26.08;;;;;;;7.46;61.19;101673.72;5060313;28;20037;-78
2022/01/22 10:06:20;;;;;;;74.10;27.85;;;;;;;8.43;55.70;101674.38;5065261;28;20429;-77
2022/01/22 10:09:34;;;;;;;63.50;24.33;;;;;;;9.13;52.57;101675.88;5053808;28;20071;-77
2022/01/22 10:12:45;;;;;;;70.63;28.60;;;;;;;9.56;51.63;101670.66;5070272;28;20044;-78
2022/01/22 10:15:36;;;;;;;62.10;26.77;;;;;;;9.78;50.51;101671.00;5076931;28;20047;-77
2022/01/22 10:18:35;;;;;;;74.03;29.02;;;;;;;9.99;49.74;101668.91;5064895;28;20408;-77
2022/01/22 10:21:20;;;;;;;50.95;20.83;;;;;;;10.48;49.57;101666.72;5078896;28;20485;-78
2022/01/22 10:24:39;;;;;;;52.15;21.98;;;;;;;10.56;47.88;101668.81;5071370;28;20032;-77
2022/01/22 10:27:36;;;;;;;60.53;26.70;;;;;;;11.18;47.94;101657.84;5071414;28;20036;-78
2022/01/22 10:30:21;;;;;;;65.35;27.90;;;;;;;11.01;48.11;101656.50;5066668;28;20036;-77
2022/01/22 10:33:29;;;;;;;66.93;29.20;;;;;;;11.02;47.45;101655.34;5073478;28;20040;-77
2022/01/22 10:36:33;;;;;;;54.60;22.35;;;;;;;11.23;46.78;101653.13;5084375;28;20037;-78
2022/01/22 10:39:42;;;;;;;64.07;25.40;;;;;;;11.67;47.02;101658.13;5077073;28;20036;-77
2022/01/22 10:42:29;;;;;;;62.67;23.40;;;;;;;11.38;46.21;101647.44;5077306;28;20400;-78
2022/01/22 10:45:22;;;;;;;68.53;29.77;;;;;;;10.80;45.65;101641.56;5055441;28;20052;-78
2022/01/22 10:48:21;;;;;;;62.15;27.08;;;;;;;10.88;46.08;101637.34;5074952;28;20040;-78
2022/01/22 10:51:08;;;;;;;71.25;28.05;;;;;;;10.59;47.14;101643.75;5072044;28;20037;-77
2022/01/22 10:54:01;;;;;;;66.63;26.80;;;;;;;11.67;46.52;101638.25;5069013;28;20512;-77
2022/01/22 10:56:46;;;;;;;58.13;25.88;;;;;;;11.48;44.92;101628.22;5073185;28;20044;-79
2022/01/22 10:59:32;;;;;;;72.65;29.02;;;;;;;11.40;44.59;101630.81;5067721;28;20513;-79
2022/01/22 11:02:34;;;;;;;63.05;27.30;;;;;;;10.78;44.25;101621.97;5076496;28;20032;-79
2022/01/22 11:05:37;;;;;;;64.35;28.20;;;;;;;10.22;45.77;101620.00;5076324;28;20041;-79
2022/01/22 11:08:22;;;;;;;64.75;26.52;;;;;;;9.20;47.02;101627.50;5072232;28;20032;-78
2022/01/22 11:11:08;;;;;;;63.05;26.45;;;;;;;9.76;46.89;101644.13;5073307;28;20048;-78
2022/01/22 11:13:53;;;;;;;47.35;19.13;;;;;;;10.55;48.82;101644.63;5074714;28;20040;-78
2022/01/22 11:16:40;;;;;;;47.08;21.10;;;;;;;9.81;46.61;101635.09;5074177;28;20497;-78
2022/01/22 11:19:32;;;;;;;60.17;27.58;;;;;;;9.52;48.79;101620.75;5078525;28;20040;-79
2022/01/22 11:22:18;;;;;;;69.85;27.15;;;;;;;9.88;48.74;101616.56;5075441;28;20051;-79
2022/01/22 11:25:06;;;;;;;65.82;28.58;;;;;;;9.91;48.24;101607.03;5076343;28;20040;-80
2022/01/22 11:27:52;;;;;;;60.38;25.73;;;;;;;11.47;48.79;101609.47;5079640;28;20043;-79
2022/01/22 11:30:38;;;;;;;60.25;26.35;;;;;;;11.69;46.98;101608.78;5078215;28;20040;-79
2022/01/22 11:33:24;;;;;;;60.33;26.13;;;;;;;12.16;45.51;101600.25;5076005;28;20036;-79
2022/01/22 11:36:22;;;;;;;60.42;26.98;;;;;;;12.47;45.24;101602.34;5078873;28;20405;-79
2022/01/22 11:39:07;;;;;;;63.45;27.00;;;;;;;12.80;44.40;101579.19;5077151;28;20048;-80
2022/01/22 11:41:57;;;;;;;56.45;26.88;;;;;;;12.35;44.21;101592.75;5083257;28;20044;-79
2022/01/22 11:44:49;;;;;;;55.08;26.90;;;;;;;12.54;43.92;101589.91;5079783;28;20655;-79
2022/01/22 11:47:34;;;;;;;60.83;27.00;;;;;;;11.92;43.93;101584.13;5075885;28;20044;-79
2022/01/22 11:50:22;;;;;;;57.15;28.25;;;;;;;11.79;44.04;101584.91;5071274;28;20040;-80
2022/01/22 11:53:31;;;;;;;56.08;25.15;;;;;;;12.54;43.74;101583.66;5081083;28;20048;-79
2022/01/22 11:56:27;;;;;;;55.30;26.23;;;;;;;12.66;44.31;101573.81;5076538;28;20041;-79
2022/01/22 11:59:11;;;;;;;62.58;27.85;;;;;;;12.78;43.50;101576.81;5080930;28;20041;-78
2022/01/22 12:02:02;;;;;;;53.33;24.73;;;;;;;12.80;43.05;101568.28;5060206;28;20041;-79
2022/01/22 12:04:50;;;;;;;54.55;25.15;;;;;;;12.30;43.39;101564.78;5070249;28;20044;-79
2022/01/22 12:07:36;;;;;;;56.15;23.10;;;;;;;12.41;42.87;101566.19;5074276;28;20033;-82
2022/01/22 12:10:36;;;;;;;49.45;22.40;;;;;;;12.93;42.26;101547.53;5072863;28;20040;-79
2022/01/22 12:16:44;;;;;;;47.05;21.83;;;;;;;13.68;40.37;101533.81;5077432;28;20048;-80
2022/01/22 12:19:46;;;;;;;45.85;23.17;;;;;;;11.10;41.46;101548.56;5086078;28;20036;-82
2022/01/22 12:22:34;;;;;;;55.53;24.88;;;;;;;10.52;43.49;101539.94;5078704;28;20036;-82
2022/01/22 12:25:21;;;;;;;51.35;24.83;;;;;;;10.25;44.59;101540.63;5084431;28;20040;-82
2022/01/22 12:28:08;;;;;;;64.80;23.98;;;;;;;9.72;45.53;101522.78;5088372;28;20040;-82
2022/01/22 12:31:02;;;;;;;60.80;23.65;;;;;;;9.57;46.22;101522.94;5086366;28;20044;-83
2022/01/22 12:33:53;;;;;;;58.08;23.85;;;;;;;9.40;46.78;101524.19;5080614;28;20036;-81
2022/01/22 12:36:40;;;;;;;58.42;25.30;;;;;;;9.46;47.12;101522.25;5085829;28;20047;-81
2022/01/22 12:39:29;;;;;;;68.15;27.38;;;;;;;9.77;46.45;101520.00;5081930;28;20040;-81
2022/01/22 12:42:23;;;;;;;58.58;25.02;;;;;;;9.81;47.08;101507.44;5090098;28;20051;-82
2022/01/22 12:45:08;;;;;;;54.83;25.20;;;;;;;9.82;46.94;101511.78;5085284;28;20056;-82
2022/01/22 12:47:54;;;;;;;40.60;17.85;;;;;;;9.79;46.80;101496.06;5092486;28;20416;-81
2022/01/22 12:50:39;;;;;;;45.35;22.10;;;;;;;9.42;47.14;101494.06;5085501;28;20051;-83
2022/01/22 12:53:24;;;;;;;47.95;21.27;;;;;;;9.71;46.91;101494.81;5079330;28;20051;-81
2022/01/22 12:56:47;;;;;;;38.22;17.52;;;;;;;9.86;46.45;101499.22;5084930;28;20051;-82
2022/01/22 12:59:20;;;;;;;40.13;19.60;;;;;;;9.96;46.39;101495.56;5089543;28;20048;-81
2022/01/22 13:02:05;;;;;;;;;;;;;;;9.77;46.18;101490.94;5099369;28;20039;-82
2022/01/22 13:05:01;;;;;;;43.42;19.27;;;;;;;10.24;45.19;101495.50;5100191;28;20297;-82
2022/01/22 13:08:06;;;;;;;37.85;17.92;;;;;;;10.38;44.71;101490.13;5087688;28;20036;-81
2022/01/22 13:11:13;;;;;;;33.67;14.57;;;;;;;10.44;44.65;101496.31;5086039;28;20037;-80
2022/01/22 13:14:00;;;;;;;38.63;18.42;;;;;;;10.75;43.75;101502.88;5095198;28;20053;-82
2022/01/22 13:17:03;;;;;;;42.38;20.60;;;;;;;11.91;41.41;101514.38;5105322;28;20040;-82
2022/01/22 13:19:48;;;;;;;42.70;20.13;;;;;;;12.54;39.33;101502.63;5074150;28;20420;-83
2022/01/22 13:22:35;;;;;;;36.03;16.75;;;;;;;13.27;37.77;101493.13;5067604;28;20032;-82
2022/01/22 13:25:20;;;;;;;45.45;21.92;;;;;;;13.22;37.62;101479.63;5079881;28;20040;-84
2022/01/22 13:28:12;;;;;;;44.30;19.55;;;;;;;12.99;38.24;101478.03;5075038;28;20493;-82
2022/01/22 13:31:02;;;;;;;40.20;19.45;;;;;;;13.20;37.98;101485.41;5083713;28;20040;-81
2022/01/22 13:36:50;;;;;;;29.33;11.10;;;;;;;12.91;42.82;101478.75;5081259;28;20040;-81
2022/01/22 13:40:25;;;;;;;40.50;14.90;;;;;;;11.97;46.34;101477.72;5092347;28;20508;-81
2022/01/22 13:48:42;;;;;;;39.78;17.35;;;;;;;11.12;47.97;101486.44;5082234;28;20036;-81
2022/01/22 13:51:28;;;;;;;40.45;20.90;;;;;;;11.07;48.86;101494.69;5088634;28;20048;-80
2022/01/22 13:54:14;;;;;;;44.95;18.85;;;;;;;11.03;48.54;101499.13;5090411;28;20040;-81
2022/01/22 13:57:05;;;;;;;36.22;17.38;;;;;;;11.04;49.13;101495.31;5101430;28;20040;-82
2022/01/22 13:59:53;;;;;;;43.35;19.38;;;;;;;11.03;48.99;101515.47;5089319;28;20044;-81
2022/01/22 14:05:51;;;;;;;32.03;15.95;;;;;;;11.15;47.92;101504.09;5085557;28;20052;-80
2022/01/22 14:08:36;;;;;;;32.83;15.57;;;;;;;11.13;47.85;101500.84;5083130;28;20508;-81
2022/01/22 14:11:23;;;;;;;;;;;;;;;11.29;48.37;101490.50;5074352;28;20048;-81
2022/01/22 14:14:07;;;;;;;31.48;14.13;;;;;;;11.32;48.65;101506.25;5084608;28;20380;-82
2022/01/22 14:17:09;;;;;;;37.15;14.65;;;;;;;11.43;47.99;101502.22;5079596;28;20040;-81
2022/01/22 14:20:03;;;;;;;32.03;14.55;;;;;;;11.46;47.97;101507.06;5079700;28;20041;-82
2022/01/22 14:22:54;;;;;;;32.00;15.43;;;;;;;11.57;47.94;101513.94;5084200;28;20048;-81
2022/01/22 14:26:00;;;;;;;29.70;14.68;;;;;;;11.63;47.78;101512.72;5077692;28;20048;-81
2022/01/22 14:28:54;;;;;;;30.85;14.40;;;;;;;11.67;47.98;101508.28;5090980;28;20049;-81
2022/01/22 14:31:50;;;;;;;36.53;16.13;;;;;;;11.73;47.05;101518.03;5078704;28;20040;-82
2022/01/22 14:34:39;;;;;;;27.40;14.50;;;;;;;11.81;47.90;101521.94;5079261;28;20045;-82
2022/01/22 14:37:28;;;;;;;35.67;16.35;;;;;;;11.86;46.39;101527.28;5083829;28;20037;-81
2022/01/22 14:46:22;;;;;;;24.92;12.15;;;;;;;11.98;47.52;101525.69;4989151;28;20618;-80
2022/01/22 14:49:07;;;;;;;23.65;11.13;;;;;;;12.00;46.81;101528.06;5074246;28;20531;-81
2022/01/22 14:51:51;;;;;;;32.55;15.65;;;;;;;12.07;47.75;101538.56;5071849;28;20045;-81
2022/01/22 14:54:39;;;;;;;24.65;13.50;;;;;;;12.16;48.75;101540.28;5083617;28;20040;-81
2022/01/22 14:57:35;;;;;;;19.55;10.50;;;;;;;12.24;49.92;101546.94;5079851;28;20036;-82
2022/01/22 15:00:21;;;;;;;28.13;13.38;;;;;;;12.21;47.76;101556.53;5084777;28;20048;-80
2022/01/22 15:03:06;;;;;;;23.95;10.57;;;;;;;12.28;49.74;101553.41;5073596;28;20048;-82